Time;durP1;ratioP1;P1;durP2;ratioP2;P2;SDS_P1;SDS_P2;PMS_P1;PMS_P2;Temp;Humidity;BMP_temperature;BMP_pressure;BME280_temperature;BME280_humidity;BME280_pressure;Samples;Min_cycle;Max_cycle;Signal;HPM_P1;HPM_P2
2023/05/03 00:01:48;;;;;;;;;15.33;15.33;;;;;15.51;47.22;101688.38;4958038;28;45451;-54
2023/05/03 00:04:16;;;;;;;;;13.67;13.67;;;;;15.46;47.55;101681.47;4958341;28;45423;-57
2023/05/03 00:06:43;;;;;;;;;13.00;13.00;;;;;15.46;48.16;101685.91;4958539;28;45551;-56
2023/05/03 00:09:09;;;;;;;;;14.00;12.00;;;;;15.40;47.65;101664.94;4947763;28;45961;-56
2023/05/03 00:11:35;;;;;;;;;13.67;13.00;;;;;15.39;47.12;101673.78;4954968;28;45534;-57
2023/05/03 00:14:00;;;;;;;;;12.33;11.00;;;;;15.36;47.68;101668.63;4958504;28;45511;-55
2023/05/03 00:16:26;;;;;;;;;13.00;13.00;;;;;15.31;46.94;101666.13;4958595;28;45407;-54
2023/05/03 00:18:51;;;;;;;;;13.00;13.00;;;;;15.31;47.65;101659.97;4958144;28;46131;-56
2023/05/03 00:21:16;;;;;;;;;14.33;11.33;;;;;15.21;46.75;101652.38;4957782;28;45439;-56
2023/05/03 00:23:42;;;;;;;;;15.33;12.67;;;;;15.24;46.80;101654.91;4956615;28;45463;-58
2023/05/03 00:26:07;;;;;;;;;10.33;9.33;;;;;15.28;46.99;101660.09;4958185;28;45921;-57
2023/05/03 00:28:32;;;;;;;;;12.00;12.00;;;;;15.24;46.98;101670.81;4958094;28;45474;-56
2023/05/03 00:31:06;;;;;;;;;12.00;12.00;;;;;15.21;46.63;101681.53;4958324;28;45430;-57
2023/05/03 00:33:31;;;;;;;;;12.33;11.00;;;;;15.19;46.07;101671.91;4958317;28;45424;-57
2023/05/03 00:35:56;;;;;;;;;12.67;10.33;;;;;15.20;46.35;101671.84;4958042;28;45464;-55
2023/05/03 00:38:22;;;;;;;;;12.00;10.00;;;;;15.18;45.87;101675.50;4951936;28;67210;-55
2023/05/03 00:40:53;;;;;;;;;15.00;12.67;;;;;15.16;46.64;101672.88;4956490;28;45380;-55
2023/05/03 00:43:18;;;;;;;;;9.00;9.00;;;;;15.09;46.07;101666.06;4958338;28;45585;-57
2023/05/03 00:45:45;;;;;;;;;12.00;12.00;;;;;15.16;46.10;101670.25;4956794;28;49691;-55
2023/05/03 00:48:11;;;;;;;;;13.00;11.33;;;;;15.11;45.33;101660.72;4957837;28;45512;-53
2023/05/03 00:50:38;;;;;;;;;9.67;9.67;;;;;15.12;45.75;101675.69;4947236;28;45569;-57
2023/05/03 00:53:03;;;;;;;;;9.33;9.33;;;;;15.10;45.80;101669.59;4955913;28;45463;-56
2023/05/03 00:55:32;;;;;;;;;8.33;8.00;;;;;15.05;45.40;101656.53;4958002;28;45668;-55
2023/05/03 00:57:57;;;;;;;;;9.33;9.33;;;;;15.08;45.89;101668.81;4957090;28;45486;-54
2023/05/03 01:00:24;;;;;;;;;12.00;10.33;;;;;15.03;45.58;101661.00;4956254;28;45456;-58
2023/05/03 01:02:49;;;;;;;;;12.67;12.67;;;;;15.02;44.79;101654.00;4956369;28;45525;-57
2023/05/03 01:05:15;;;;;;;;;9.67;9.67;;;;;15.02;45.35;101660.16;4952393;28;45423;-56
2023/05/03 01:08:04;;;;;;;;;10.67;9.33;;;;;15.00;45.31;101656.69;4957762;28;46102;-55
2023/05/03 01:10:51;;;;;;;;;10.33;9.33;;;;;14.99;45.37;101660.28;4957791;28;45477;-55
2023/05/03 01:13:31;;;;;;;;;10.00;10.00;;;;;14.97;45.21;101655.94;4957819;28;45539;-54
2023/05/03 01:16:10;;;;;;;;;9.00;9.00;;;;;14.99;45.24;101656.72;4957702;28;45404;-54
2023/05/03 01:18:43;;;;;;;;;9.00;9.00;;;;;15.01;44.36;101650.47;4955347;28;46020;-57
2023/05/03 01:21:09;;;;;;;;;12.00;10.00;;;;;15.06;44.71;101660.91;4948959;28;45499;-56
2023/05/03 01:23:53;;;;;;;;;8.67;8.00;;;;;15.03;45.24;101655.72;4957269;28;45382;-57
2023/05/03 01:26:20;;;;;;;;;11.33;10.00;;;;;15.06;44.87;101652.09;4957382;28;45534;-58
2023/05/03 01:28:45;;;;;;;;;14.00;12.67;;;;;15.06;44.88;101652.94;4956110;28;46392;-53
2023/05/03 01:31:13;;;;;;;;;12.00;10.33;;;;;15.03;44.05;101658.38;4957204;28;45482;-56
2023/05/03 01:33:59;;;;;;;;;9.33;8.00;;;;;14.98;44.71;101657.66;4952154;28;45611;-56
2023/05/03 01:36:32;;;;;;;;;11.00;11.00;;;;;14.97;44.45;101653.31;4950540;28;45440;-56
2023/05/03 01:39:05;;;;;;;;;10.67;10.67;;;;;14.99;45.33;101656.72;4956937;28;46215;-56
2023/05/03 01:41:33;;;;;;;;;9.67;9.67;;;;;14.97;44.08;101667.41;4957215;28;45447;-57
2023/05/03 01:43:59;;;;;;;;;11.67;11.67;;;;;14.96;44.49;101667.44;4956611;28;45418;-56
2023/05/03 01:46:24;;;;;;;;;12.67;12.33;;;;;14.94;45.28;101672.81;4952176;28;45654;-56
2023/05/03 01:48:49;;;;;;;;;12.00;12.00;;;;;14.96;44.75;101670.09;4955687;28;45945;-56
2023/05/03 01:51:15;;;;;;;;;11.00;10.00;;;;;14.95;45.34;101671.88;4956463;28;63471;-55
2023/05/03 01:53:40;;;;;;;;;11.33;10.33;;;;;14.96;45.41;101672.75;4957531;28;45443;-57
2023/05/03 01:56:07;;;;;;;;;10.00;10.00;;;;;14.96;45.67;101671.00;4957162;28;45498;-55
2023/05/03 01:58:32;;;;;;;;;14.00;11.00;;;;;14.96;44.22;101676.28;4956543;28;46085;-56
2023/05/03 02:00:58;;;;;;;;;10.33;10.33;;;;;14.99;44.50;101672.63;4955997;28;45577;-56
2023/05/03 02:03:23;;;;;;;;;14.00;12.67;;;;;14.95;44.58;101671.88;4956712;28;45423;-56
2023/05/03 02:05:48;;;;;;;;;12.00;12.00;;;;;14.98;44.63;101673.56;4956779;28;45343;-56
2023/05/03 02:08:13;;;;;;;;;12.33;11.67;;;;;14.95;44.53;101674.53;4946626;28;53779;-56
2023/05/03 02:10:39;;;;;;;;;9.33;9.33;;;;;14.98;44.77;101676.22;4954911;28;45442;-57
2023/05/03 02:13:04;;;;;;;;;11.67;10.67;;;;;14.96;44.63;101670.09;4955336;28;45532;-55
2023/05/03 02:15:30;;;;;;;;;10.00;10.00;;;;;14.97;44.96;101667.41;4955940;28;45344;-57
2023/05/03 02:17:57;;;;;;;;;11.67;11.67;;;;;14.94;45.38;101664.00;4956685;28;46158;-56
2023/05/03 02:20:22;;;;;;;;;15.00;14.00;;;;;14.95;44.66;101663.09;4956770;28;45402;-54
2023/05/03 02:22:47;;;;;;;;;12.00;12.00;;;;;14.97;45.60;101664.75;4955841;28;45520;-58
2023/05/03 02:25:13;;;;;;;;;13.00;13.00;;;;;14.94;45.69;101677.25;4946376;28;54391;-56
2023/05/03 02:27:38;;;;;;;;;14.00;14.00;;;;;14.92;45.41;101673.78;4956120;28;46188;-56
2023/05/03 02:30:04;;;;;;;;;14.00;13.67;;;;;14.86;46.06;101671.38;4956620;28;45394;-57
2023/05/03 02:32:29;;;;;;;;;16.33;14.00;;;;;14.88;46.08;101674.81;4943202;28;45442;-57
2023/05/03 02:34:55;;;;;;;;;19.00;17.00;;;;;14.86;45.62;101674.03;4945485;28;45553;-57
2023/05/03 02:37:20;;;;;;;;;15.67;14.67;;;;;14.83;46.60;101674.09;4956060;28;46111;-58
2023/05/03 02:39:45;;;;;;;;;12.33;12.33;;;;;14.81;46.79;101674.19;4956196;28;45446;-57
2023/05/03 02:42:11;;;;;;;;;17.00;15.00;;;;;14.79;46.03;101671.56;4956471;28;45534;-57
2023/05/03 02:44:36;;;;;;;;;17.33;15.33;;;;;14.78;47.09;101667.22;4956497;28;45546;-56
2023/05/03 02:47:01;;;;;;;;;15.33;15.33;;;;;14.77;46.26;101670.75;4955823;28;58662;-56
2023/05/03 02:49:27;;;;;;;;;16.00;13.67;;;;;14.76;46.18;101676.97;4954944;28;45449;-56
2023/05/03 02:51:52;;;;;;;;;13.67;13.67;;;;;14.72;47.16;101672.72;4956400;28;45790;-55
2023/05/03 02:54:18;;;;;;;;;14.33;14.33;;;;;14.65;47.07;101671.22;4956938;28;45421;-55
2023/05/03 02:56:43;;;;;;;;;20.00;16.00;;;;;14.65;46.89;101670.34;4953244;28;45427;-52
2023/05/03 02:59:08;;;;;;;;;14.33;13.33;;;;;14.65;47.20;101671.22;4956003;28;45367;-55
2023/05/03 03:01:34;;;;;;;;;16.67;14.33;;;;;14.64;47.24;101671.25;4959377;28;45324;-57
2023/05/03 03:03:59;;;;;;;;;17.00;17.00;;;;;14.61;47.53;101666.91;4959166;28;45358;-54
2023/05/03 03:06:24;;;;;;;;;15.67;15.67;;;;;14.56;47.43;101655.63;4959364;28;45946;-57
2023/05/03 03:08:50;;;;;;;;;16.33;16.00;;;;;14.60;47.69;101665.22;4959266;28;45477;-57
2023/05/03 03:11:15;;;;;;;;;13.67;13.67;;;;;14.57;47.82;101654.72;4952176;28;45622;-52
2023/05/03 03:13:41;;;;;;;;;12.00;12.00;;;;;14.56;47.84;101656.50;4955235;28;45411;-56
2023/05/03 03:16:07;;;;;;;;;21.00;19.00;;;;;14.56;47.74;101651.22;4959040;28;45365;-57
2023/05/03 03:18:33;;;;;;;;;16.00;15.00;;;;;14.57;47.98;101646.78;4959140;28;45387;-57
2023/05/03 03:21:00;;;;;;;;;13.00;13.00;;;;;14.55;47.67;101648.63;4958271;28;45550;-57
2023/05/03 03:23:25;;;;;;;;;13.67;13.67;;;;;14.53;47.88;101642.50;4959392;28;45347;-57
2023/05/03 03:25:51;;;;;;;;;16.00;16.00;;;;;14.51;47.91;101644.34;4958316;28;50898;-57
2023/05/03 03:28:17;;;;;;;;;13.67;13.67;;;;;14.47;47.54;101632.97;4949699;28;45447;-58
2023/05/03 03:30:43;;;;;;;;;16.00;15.33;;;;;14.38;47.90;101616.56;4955623;28;45471;-57
2023/05/03 03:33:08;;;;;;;;;15.67;15.67;;;;;14.48;47.29;101633.81;4959255;28;45592;-56
2023/05/03 03:35:35;;;;;;;;;16.00;15.00;;;;;14.48;47.33;101632.06;4955541;28;47270;-56
2023/05/03 03:38:00;;;;;;;;;16.33;15.00;;;;;14.46;47.79;101628.59;4959070;28;45409;-55
2023/05/03 03:40:26;;;;;;;;;15.00;15.00;;;;;14.46;48.24;101622.44;4958967;28;45807;-56
2023/05/03 03:42:51;;;;;;;;;19.00;19.00;;;;;14.45;48.15;101626.00;4958889;28;45355;-57
2023/05/03 03:45:17;;;;;;;;;17.33;17.33;;;;;14.41;47.55;101625.25;4958753;28;45488;-59
2023/05/03 03:47:42;;;;;;;;;19.33;17.33;;;;;14.39;48.22;101618.28;4958907;28;45315;-56
2023/05/03 03:50:08;;;;;;;;;19.67;18.67;;;;;14.38;48.18;101621.84;4957779;28;45384;-57
2023/05/03 03:52:33;;;;;;;;;20.67;20.67;;;;;14.38;47.47;101622.72;4948275;28;45476;-60
2023/05/03 03:54:58;;;;;;;;;22.67;21.33;;;;;14.37;47.80;101623.59;4958982;28;45972;-58
2023/05/03 03:57:24;;;;;;;;;29.33;25.00;;;;;14.36;47.67;101624.53;4958692;28;45565;-57
2023/05/03 03:59:50;;;;;;;;;24.67;24.67;;;;;14.34;48.28;101621.94;4958496;28;45525;-57
2023/05/03 04:02:15;;;;;;;;;22.00;22.00;;;;;14.32;48.13;101626.44;4958677;28;45589;-55
2023/05/03 04:04:41;;;;;;;;;26.67;23.33;;;;;14.32;48.14;101621.16;4958455;28;48436;-55
2023/05/03 04:07:08;;;;;;;;;24.00;22.67;;;;;14.30;47.96;101619.47;4957588;28;45480;-55
2023/05/03 04:09:33;;;;;;;;;23.33;21.00;;;;;14.28;47.92;101619.50;4958734;28;45398;-57
2023/05/03 04:11:59;;;;;;;;;27.33;25.33;;;;;14.25;48.27;101619.63;4956292;28;45558;-57
2023/05/03 04:14:24;;;;;;;;;22.67;20.67;;;;;14.26;48.23;101623.13;4951543;28;45406;-57
2023/05/03 04:16:50;;;;;;;;;23.67;22.67;;;;;14.26;48.37;101623.13;4952624;28;45518;-57
2023/05/03 04:19:17;;;;;;;;;20.33;20.33;;;;;14.24;47.76;101625.84;4957986;28;57762;-57
2023/05/03 04:21:42;;;;;;;;;21.00;18.33;;;;;14.25;48.03;101619.63;4955325;28;45381;-57
2023/05/03 04:24:08;;;;;;;;;19.67;18.67;;;;;14.24;48.02;101620.53;4958066;28;46340;-55
2023/05/03 04:26:34;;;;;;;;;20.33;19.00;;;;;14.24;48.16;101617.91;4973276;28;45454;-54
2023/05/03 04:28:59;;;;;;;;;17.33;15.33;;;;;14.21;48.27;101618.00;4958353;28;45690;-57
2023/05/03 04:31:25;;;;;;;;;16.00;15.67;;;;;14.09;48.43;101626.34;4958304;28;45577;-56
2023/05/03 04:33:51;;;;;;;;;17.33;15.00;;;;;14.08;48.57;101628.13;4956636;28;46334;-54
2023/05/03 04:36:16;;;;;;;;;23.67;17.67;;;;;14.07;48.43;101615.81;4950706;28;45477;-56
2023/05/03 04:38:42;;;;;;;;;20.67;17.00;;;;;14.11;48.57;101613.94;4958071;28;45550;-53
2023/05/03 04:41:08;;;;;;;;;17.00;16.33;;;;;14.12;48.32;101621.81;4958169;28;45501;-56
2023/05/03 04:43:34;;;;;;;;;17.67;17.67;;;;;14.07;48.64;101618.44;4957949;28;45510;-55
2023/05/03 04:46:01;;;;;;;;;24.67;22.00;;;;;14.11;48.31;101622.72;4958046;28;45574;-56
2023/05/03 04:48:26;;;;;;;;;18.00;17.00;;;;;14.11;48.50;101628.03;4958011;28;45411;-57
2023/05/03 04:50:51;;;;;;;;;25.00;21.00;;;;;14.09;48.29;101629.84;4956943;28;48882;-57
2023/05/03 04:53:17;;;;;;;;;21.00;20.33;;;;;14.09;48.76;101636.94;4957742;28;46105;-57
2023/05/03 04:55:42;;;;;;;;;25.00;24.33;;;;;14.10;48.62;101636.00;4954514;28;45423;-54
2023/05/03 04:58:07;;;;;;;;;26.00;23.33;;;;;14.07;48.02;101630.81;4957787;28;45652;-55
2023/05/03 05:00:33;;;;;;;;;27.33;26.33;;;;;14.03;48.95;101627.41;4943745;28;45604;-57
2023/05/03 05:02:58;;;;;;;;;26.00;25.00;;;;;14.03;48.74;101627.41;4950238;28;45994;-57
2023/05/03 05:05:24;;;;;;;;;32.00;27.67;;;;;14.05;49.09;101630.00;4955219;28;45404;-55
2023/05/03 05:07:50;;;;;;;;;26.00;26.00;;;;;14.04;49.08;101623.84;4957653;28;45477;-55
2023/05/03 05:10:15;;;;;;;;;25.00;25.00;;;;;14.06;48.68;101629.09;4957604;28;45527;-54
2023/05/03 05:12:40;;;;;;;;;26.33;25.00;;;;;14.05;49.02;101622.06;4957278;28;45488;-55
2023/05/03 05:15:06;;;;;;;;;26.67;23.00;;;;;14.06;49.15;101632.59;4955735;28;45554;-51
2023/05/03 05:17:31;;;;;;;;;21.67;20.00;;;;;14.03;49.30;101632.72;4957569;28;45471;-55
2023/05/03 05:19:57;;;;;;;;;24.33;21.33;;;;;13.99;49.80;101632.84;4957383;28;45471;-52
2023/05/03 05:22:22;;;;;;;;;23.00;22.67;;;;;13.89;49.11;101619.94;4957267;28;45981;-51
2023/05/03 05:24:47;;;;;;;;;20.00;18.67;;;;;14.01;49.05;101629.25;4957273;28;45383;-54
2023/05/03 05:27:13;;;;;;;;;19.00;17.33;;;;;14.01;49.50;101631.03;4957288;28;45517;-50
2023/05/03 05:29:38;;;;;;;;;22.00;19.67;;;;;14.03;49.09;101632.72;4954695;28;45493;-52
2023/05/03 05:32:04;;;;;;;;;17.33;16.67;;;;;14.03;49.08;101622.13;4957188;28;50308;-53
2023/05/03 05:34:30;;;;;;;;;19.00;16.67;;;;;14.02;48.14;101624.81;4955338;28;45723;-54
2023/05/03 05:36:55;;;;;;;;;21.00;20.00;;;;;14.04;49.01;101625.63;4957369;28;45451;-55
2023/05/03 05:39:22;;;;;;;;;20.67;18.00;;;;;14.01;49.01;101629.25;4954950;28;45495;-55
2023/05/03 05:41:47;;;;;;;;;17.00;17.00;;;;;14.04;48.43;101620.34;4953492;28;46111;-54
2023/05/03 05:44:12;;;;;;;;;19.33;17.00;;;;;14.04;48.65;101625.63;4956719;28;45433;-55
2023/05/03 05:46:38;;;;;;;;;19.67;18.33;;;;;14.06;48.91;101631.75;4956939;28;45508;-55
2023/05/03 05:49:03;;;;;;;;;12.67;12.67;;;;;14.02;48.72;101624.81;4956857;28;51346;-54
2023/05/03 05:51:30;;;;;;;;;18.00;16.00;;;;;14.08;49.19;101632.56;4956978;28;45720;-55
2023/05/03 05:53:56;;;;;;;;;17.00;16.67;;;;;14.03;49.09;101638.00;4954395;28;45494;-54
2023/05/03 05:56:21;;;;;;;;;16.33;14.67;;;;;14.02;48.70;101641.53;4956840;28;45490;-53
2023/05/03 05:58:46;;;;;;;;;17.00;16.67;;;;;14.00;48.60;101630.16;4956566;28;47294;-51
2023/05/03 06:01:12;;;;;;;;;14.33;14.00;;;;;13.98;49.01;101631.13;4951453;28;47040;-52
2023/05/03 06:03:37;;;;;;;;;17.67;15.33;;;;;14.02;48.96;101635.38;4953928;28;45527;-53
2023/05/03 06:06:02;;;;;;;;;17.00;16.33;;;;;14.03;49.18;101634.50;4955679;28;45943;-54
2023/05/03 06:08:28;;;;;;;;;18.33;17.00;;;;;14.03;49.23;101650.38;4956493;28;45585;-57
2023/05/03 06:10:54;;;;;;;;;18.33;18.00;;;;;14.05;49.27;101653.81;4950994;28;45545;-59
2023/05/03 06:13:21;;;;;;;;;16.67;15.67;;;;;14.07;48.71;101659.91;4952097;28;45548;-59
2023/05/03 06:15:46;;;;;;;;;21.33;19.67;;;;;14.07;48.80;101652.84;4951970;28;45396;-59
2023/05/03 06:18:11;;;;;;;;;17.67;15.00;;;;;14.06;49.14;101650.25;4955653;28;45556;-61
2023/05/03 06:20:37;;;;;;;;;19.00;16.33;;;;;14.06;48.35;101648.47;4944245;28;45407;-62
2023/05/03 06:23:02;;;;;;;;;21.00;20.00;;;;;14.07;48.91;101646.69;4956236;28;45409;-66
2023/05/03 06:25:27;;;;;;;;;19.33;19.00;;;;;14.03;48.52;101643.28;4953284;28;55825;-65
2023/05/03 06:27:53;;;;;;;;;16.00;16.00;;;;;14.03;48.94;101637.13;4956422;28;45435;-65
2023/05/03 06:30:18;;;;;;;;;17.00;16.00;;;;;14.02;48.80;101632.75;4955514;28;62279;-64
2023/05/03 06:32:46;;;;;;;;;17.33;17.00;;;;;14.03;48.97;101631.84;4954322;28;45535;-63
2023/05/03 06:35:11;;;;;;;;;18.00;16.33;;;;;14.00;49.09;101630.16;4956478;28;45577;-59
2023/05/03 06:37:37;;;;;;;;;14.33;14.33;;;;;14.04;49.02;101633.56;4958555;28;45552;-57
2023/05/03 06:40:03;;;;;;;;;18.00;14.33;;;;;14.05;48.59;101627.34;4962507;28;45427;-58
2023/05/03 06:42:29;;;;;;;;;20.67;17.67;;;;;14.07;49.11;101630.81;4961388;28;45485;-61
2023/05/03 06:44:54;;;;;;;;;18.67;16.67;;;;;14.10;49.33;101636.00;4962541;28;45512;-58
2023/05/03 06:47:20;;;;;;;;;18.00;18.00;;;;;14.13;48.52;101636.78;4960384;28;52940;-59
2023/05/03 06:49:45;;;;;;;;;19.33;19.00;;;;;14.17;49.13;101640.19;4961726;28;45550;-61
2023/05/03 06:52:11;;;;;;;;;18.00;17.67;;;;;14.12;48.45;101635.03;4956634;28;45489;-60
2023/05/03 06:54:36;;;;;;;;;18.00;15.00;;;;;14.12;48.89;101636.81;4962805;28;45363;-59
2023/05/03 06:57:03;;;;;;;;;11.00;11.00;;;;;14.07;49.08;101630.81;4961336;28;46612;-59
2023/05/03 06:59:28;;;;;;;;;18.33;18.00;;;;;14.10;48.91;101634.25;4962223;28;45469;-61
2023/05/03 07:01:54;;;;;;;;;19.00;17.67;;;;;14.10;48.47;101626.31;4960567;28;45491;-60
2023/05/03 07:04:19;;;;;;;;;14.67;14.67;;;;;14.02;48.67;101607.16;4960023;28;45433;-58
2023/05/03 07:06:44;;;;;;;;;15.33;15.33;;;;;14.11;48.94;101622.72;4957175;28;45754;-58
2023/05/03 07:09:10;;;;;;;;;34.33;31.33;;;;;14.15;49.27;101619.06;4962068;28;45470;-58
2023/05/03 07:11:38;;;;;;;;;24.33;20.00;;;;;14.20;49.33;101615.41;4961861;28;45469;-59
2023/05/03 07:14:03;;;;;;;;;17.33;15.67;;;;;14.23;48.86;101618.78;4962457;28;45631;-60
2023/05/03 07:16:29;;;;;;;;;20.33;19.00;;;;;14.31;49.31;101623.81;4962033;28;45458;-61
2023/05/03 07:18:54;;;;;;;;;20.67;18.67;;;;;14.33;49.01;101620.22;4960836;28;46951;-63
2023/05/03 07:21:19;;;;;;;;;18.67;17.33;;;;;14.35;48.97;101613.09;4951959;28;45483;-59
2023/05/03 07:23:45;;;;;;;;;17.33;16.67;;;;;14.42;48.81;101616.38;4962011;28;45360;-59
2023/05/03 07:26:10;;;;;;;;;18.00;16.67;;;;;14.45;48.74;101616.25;4962017;28;45412;-57
2023/05/03 07:28:35;;;;;;;;;17.00;17.00;;;;;14.48;49.25;101608.25;4961536;28;46108;-58
2023/05/03 07:31:02;;;;;;;;;19.67;18.00;;;;;14.49;48.85;101612.59;4960262;28;45494;-58
2023/05/03 07:33:28;;;;;;;;;18.33;18.33;;;;;14.51;48.58;101608.13;4953899;28;45469;-58
2023/05/03 07:35:53;;;;;;;;;17.67;17.33;;;;;14.58;49.12;101598.19;4961845;28;45476;-59
2023/05/03 07:38:18;;;;;;;;;19.00;19.00;;;;;14.63;48.44;101601.56;4961501;28;56707;-62
2023/05/03 07:40:44;;;;;;;;;18.00;15.67;;;;;14.64;48.01;101599.75;4961376;28;58521;-61
2023/05/03 07:43:09;;;;;;;;;12.33;12.33;;;;;14.63;48.61;101598.03;4961294;28;56059;-61
2023/05/03 07:45:38;;;;;;;;;16.67;16.67;;;;;14.64;48.44;101594.47;4960386;28;45653;-60
2023/05/03 07:48:05;;;;;;;;;17.00;16.67;;;;;14.68;48.80;101586.38;4953260;28;46545;-61
2023/05/03 07:50:30;;;;;;;;;19.33;17.00;;;;;14.73;47.99;101584.41;4958561;28;45617;-62
2023/05/03 07:52:56;;;;;;;;;21.00;20.00;;;;;14.77;48.23;101580.72;4957507;28;45454;-60
2023/05/03 07:55:21;;;;;;;;;18.67;18.00;;;;;14.82;48.00;101574.41;4959099;28;45348;-59
2023/05/03 07:57:47;;;;;;;;;20.67;19.33;;;;;14.85;48.60;101569.84;4952399;28;48585;-59
2023/05/03 08:00:13;;;;;;;;;20.00;20.00;;;;;14.88;48.87;101569.72;4957609;28;45578;-62
2023/05/03 08:02:38;;;;;;;;;19.33;16.00;;;;;14.89;48.23;101566.16;4958071;28;45376;-61
2023/05/03 08:05:05;;;;;;;;;15.33;14.00;;;;;14.88;47.98;101564.41;4958496;28;45431;-61
2023/05/03 08:07:31;;;;;;;;;15.33;14.33;;;;;14.91;48.56;101568.75;4958214;28;45437;-60
2023/05/03 08:09:57;;;;;;;;;17.00;15.00;;;;;14.91;47.77;101550.19;4958649;28;45540;-62
2023/05/03 08:12:24;;;;;;;;;18.00;16.67;;;;;14.96;48.23;101548.25;4958332;28;45418;-60
2023/05/03 08:14:51;;;;;;;;;16.33;16.33;;;;;15.01;47.53;101554.22;4958525;28;45573;-63
2023/05/03 08:17:17;;;;;;;;;19.67;15.67;;;;;15.01;48.23;101556.88;4957377;28;45479;-62
2023/05/03 08:19:42;;;;;;;;;15.67;15.00;;;;;14.97;48.41;101553.50;4957772;28;49617;-60
2023/05/03 08:22:09;;;;;;;;;20.00;18.00;;;;;14.95;46.92;101552.69;4949153;28;45368;-60
2023/05/03 08:24:35;;;;;;;;;22.00;21.00;;;;;14.99;47.57;101543.72;4958129;28;45460;-60
2023/05/03 08:27:01;;;;;;;;;14.33;14.33;;;;;14.98;47.84;101546.41;4957615;28;45695;-61
2023/05/03 08:29:26;;;;;;;;;18.00;16.33;;;;;14.93;47.45;101540.41;4956788;28;45583;-60
2023/05/03 08:31:51;;;;;;;;;14.33;14.33;;;;;14.96;47.75;101549.13;4957182;28;45486;-60
2023/05/03 08:34:16;;;;;;;;;14.67;14.67;;;;;14.95;48.07;101541.22;4957558;28;45407;-60
2023/05/03 08:36:42;;;;;;;;;15.67;15.67;;;;;15.00;48.39;101548.06;4948578;28;45482;-57
2023/05/03 08:39:09;;;;;;;;;16.33;15.00;;;;;15.07;47.80;101550.47;4952999;28;45577;-61
2023/05/03 08:41:34;;;;;;;;;19.00;16.33;;;;;15.12;48.59;101549.38;4957924;28;45551;-60
2023/05/03 08:44:00;;;;;;;;;24.67;22.67;;;;;15.19;48.62;101545.56;4957545;28;45427;-60
2023/05/03 08:46:27;;;;;;;;;19.33;18.33;;;;;15.25;47.71;101545.31;4955992;28;45535;-54
2023/05/03 08:48:54;;;;;;;;;16.33;14.00;;;;;15.25;47.35;101537.38;4955209;28;45494;-59
2023/05/03 08:51:21;;;;;;;;;15.33;15.33;;;;;15.32;47.86;101545.09;4955629;28;45588;-60
2023/05/03 08:53:47;;;;;;;;;19.33;14.67;;;;;15.36;48.41;101541.38;4943385;28;45572;-61
2023/05/03 08:56:24;;;;;;;;;18.33;17.00;;;;;15.37;47.67;101537.81;4957131;28;46172;-60
2023/05/03 08:58:49;;;;;;;;;15.33;15.33;;;;;15.41;47.36;101532.31;4950774;28;45371;-59
2023/05/03 09:01:15;;;;;;;;;16.33;14.67;;;;;15.42;46.35;101536.72;4947248;28;49239;-59
2023/05/03 09:03:48;;;;;;;;;16.00;15.67;;;;;15.34;47.33;101532.63;4957270;28;45455;-61
2023/05/03 09:06:21;;;;;;;;;20.33;17.67;;;;;15.33;47.08;101528.25;4956843;28;46300;-59
2023/05/03 09:08:47;;;;;;;;;13.67;13.67;;;;;15.38;47.36;101534.25;4957250;28;45529;-59
2023/05/03 09:11:30;;;;;;;;;18.67;16.00;;;;;15.41;47.10;101528.81;4956241;28;45535;-59
2023/05/03 09:14:07;;;;;;;;;15.00;13.33;;;;;15.42;47.56;101519.91;4955228;28;45516;-59
2023/05/03 09:16:32;;;;;;;;;13.33;13.00;;;;;15.45;47.32;101525.13;4957137;28;45619;-59
2023/05/03 09:18:59;;;;;;;;;17.00;16.00;;;;;15.51;48.36;101521.34;4971258;28;53788;-60
2023/05/03 09:21:25;;;;;;;;;17.00;14.00;;;;;15.54;47.68;101518.56;4956607;28;45502;-59
2023/05/03 09:23:50;;;;;;;;;14.00;14.00;;;;;15.60;47.73;101521.81;4956947;28;45367;-58
2023/05/03 09:26:34;;;;;;;;;19.00;16.33;;;;;15.65;46.66;101525.16;4953302;28;46046;-59
2023/05/03 09:29:02;;;;;;;;;16.00;16.00;;;;;15.67;46.24;101517.13;4956721;28;45435;-59
2023/05/03 09:31:33;;;;;;;;;17.33;14.33;;;;;15.68;46.99;101522.38;4955315;28;45533;-57
2023/05/03 09:33:58;;;;;;;;;13.33;13.33;;;;;15.72;46.84;101511.69;4952251;28;45486;-55
2023/05/03 09:36:24;;;;;;;;;15.33;14.33;;;;;15.78;46.48;101522.03;4952340;28;46151;-57
2023/05/03 09:38:51;;;;;;;;;14.67;13.00;;;;;15.84;46.89;101521.75;4956084;28;45526;-53
2023/05/03 09:41:29;;;;;;;;;13.33;13.00;;;;;15.81;46.17;101512.13;4955255;28;45445;-57
2023/05/03 09:44:01;;;;;;;;;13.67;13.67;;;;;15.88;46.73;101512.75;4955895;28;45507;-63
2023/05/03 09:46:28;;;;;;;;;15.00;13.33;;;;;15.93;46.44;101520.50;4956349;28;46382;-64
2023/05/03 09:48:55;;;;;;;;;16.67;15.00;;;;;15.94;46.95;101520.44;4954118;28;45469;-59
2023/05/03 09:51:25;;;;;;;;;14.00;13.00;;;;;15.96;46.62;101513.28;4953508;28;45506;-61
2023/05/03 09:53:50;;;;;;;;;13.33;12.00;;;;;15.97;46.91;101506.19;4956986;28;45507;-56
2023/05/03 09:56:19;;;;;;;;;12.33;12.33;;;;;16.02;46.54;101513.00;4956891;28;45395;-56
2023/05/03 09:58:44;;;;;;;;;17.33;15.67;;;;;16.09;47.09;101506.50;4954830;28;45475;-65
2023/05/03 10:01:10;;;;;;;;;13.00;12.00;;;;;16.13;46.67;101504.56;4951440;28;45941;-52
2023/05/03 10:03:46;;;;;;;;;15.00;14.33;;;;;16.19;46.74;101508.75;4950178;28;45666;-57
2023/05/03 10:06:23;;;;;;;;;14.67;13.00;;;;;16.21;47.10;101498.94;4945453;28;46169;-58
2023/05/03 10:09:00;;;;;;;;;13.67;12.33;;;;;16.23;47.53;101494.44;4952976;28;45533;-58
2023/05/03 10:11:26;;;;;;;;;13.67;13.67;;;;;16.25;47.32;101493.41;4954557;28;45356;-58
2023/05/03 10:13:53;;;;;;;;;13.00;13.00;;;;;16.24;46.41;101490.84;4954864;28;45425;-58
2023/05/03 10:16:25;;;;;;;;;11.33;11.33;;;;;16.24;46.30;101494.34;4953562;28;46533;-58
2023/05/03 10:18:56;;;;;;;;;24.00;21.33;;;;;16.27;46.63;101490.69;4954709;28;45451;-58
2023/05/03 10:21:37;;;;;;;;;18.33;16.67;;;;;16.26;46.56;101476.56;4955594;28;45466;-58
2023/05/03 10:24:11;;;;;;;;;12.00;12.00;;;;;16.32;46.59;101480.72;4955666;28;45436;-58
2023/05/03 10:26:39;;;;;;;;;12.67;12.67;;;;;16.37;46.79;101484.03;4956059;28;46193;-61
2023/05/03 10:29:06;;;;;;;;;15.00;15.00;;;;;16.44;46.52;101487.25;4956119;28;45395;-58
2023/05/03 10:31:47;;;;;;;;;13.67;12.67;;;;;16.45;46.41;101487.22;4956392;28;45439;-58
2023/05/03 10:34:23;;;;;;;;;15.33;15.33;;;;;16.43;46.62;101478.44;4956582;28;45530;-58
2023/05/03 10:36:52;;;;;;;;;14.67;14.67;;;;;16.47;47.35;101466.75;4956092;28;45514;-58
2023/05/03 10:39:18;;;;;;;;;14.67;14.33;;;;;16.49;47.34;101467.53;4955941;28;45428;-58
2023/05/03 10:41:44;;;;;;;;;13.33;12.67;;;;;16.52;46.63;101462.09;4956274;28;45409;-58
2023/05/03 10:44:37;;;;;;;;;13.67;12.00;;;;;16.57;46.90;101460.06;4956101;28;45669;-59
2023/05/03 10:47:15;;;;;;;;;10.67;10.33;;;;;16.58;46.70;101453.00;4955832;28;45438;-58
2023/05/03 10:49:40;;;;;;;;;15.33;15.33;;;;;16.63;47.00;101439.47;4955511;28;45466;-58
2023/05/03 10:52:34;;;;;;;;;11.00;11.00;;;;;16.68;46.93;101450.75;4955415;28;45419;-59
2023/05/03 10:55:01;;;;;;;;;16.00;14.00;;;;;16.73;47.24;101446.94;4955689;28;45561;-59
2023/05/03 10:57:31;;;;;;;;;13.33;12.33;;;;;16.73;46.04;101438.09;4955562;28;45412;-59
2023/05/03 10:59:57;;;;;;;;;11.00;11.00;;;;;16.61;45.91;101426.28;4955389;28;45443;-58
2023/05/03 11:02:32;;;;;;;;;12.67;12.33;;;;;16.70;46.24;101438.25;4955947;28;45439;-58
2023/05/03 11:05:03;;;;;;;;;16.00;12.33;;;;;16.74;45.97;101429.22;4955669;28;45613;-59
2023/05/03 11:07:30;;;;;;;;;14.67;13.67;;;;;16.81;47.43;101424.50;4955377;28;45402;-58
2023/05/03 11:09:56;;;;;;;;;12.00;12.00;;;;;16.84;46.97;101425.19;4954576;28;45452;-58